createdAt,value
2022-10-24T00:01:51.105Z,15.23
2022-10-24T00:04:19.865Z,19.30
2022-10-24T00:06:48.293Z,15.93
2022-10-24T00:09:17.054Z,16.63
2022-10-24T00:11:46.200Z,15.25
2022-10-24T00:14:14.834Z,19.15
2022-10-24T00:16:43.418Z,17.02
2022-10-24T00:19:13.610Z,16.63
2022-10-24T00:21:42.143Z,19.67
2022-10-24T00:24:14.386Z,19.80
2022-10-24T00:26:43.422Z,19.02
2022-10-24T00:29:12.993Z,22.10
2022-10-24T00:31:42.279Z,20.27
2022-10-24T00:34:11.010Z,20.48
2022-10-24T00:36:41.795Z,17.92
2022-10-24T00:39:11.952Z,21.00
2022-10-24T00:41:43.227Z,16.88
2022-10-24T00:44:22.351Z,17.60
2022-10-24T00:46:56.395Z,15.98
2022-10-24T00:49:32.395Z,16.50
2022-10-24T00:52:06.852Z,15.95
2022-10-24T00:54:35.997Z,17.00
2022-10-24T00:57:09.895Z,16.70
2022-10-24T00:59:41.558Z,15.88
2022-10-24T01:02:10.376Z,30.08
2022-10-24T01:04:38.719Z,17.40
2022-10-24T01:07:25.292Z,18.85
2022-10-24T01:10:12.032Z,14.82
2022-10-24T01:12:49.997Z,14.32
2022-10-24T01:15:23.098Z,16.52
2022-10-24T01:18:01.101Z,17.15
2022-10-24T01:20:54.849Z,14.85
2022-10-24T01:23:51.152Z,16.17
2022-10-24T01:27:04.427Z,14.60
2022-10-24T01:32:15.744Z,16.38
2022-10-24T01:34:49.288Z,17.80
2022-10-24T01:37:23.253Z,17.13
2022-10-24T01:39:57.811Z,16.80
2022-10-24T01:42:29.397Z,16.42
2022-10-24T01:45:03.181Z,17.13
2022-10-24T01:47:38.144Z,18.70
2022-10-24T01:50:11.266Z,19.92
2022-10-24T01:52:45.935Z,17.73
2022-10-24T01:55:15.453Z,15.23
2022-10-24T01:57:43.984Z,16.58
2022-10-24T02:00:19.335Z,16.08
2022-10-24T02:02:55.388Z,15.80
2022-10-24T02:05:28.218Z,15.50
2022-10-24T02:08:02.348Z,15.02
2022-10-24T02:10:35.709Z,19.00
2022-10-24T02:13:08.367Z,16.58
2022-10-24T02:15:42.227Z,14.98
2022-10-24T02:18:13.059Z,15.55
2022-10-24T02:20:56.761Z,15.93
2022-10-24T02:23:33.969Z,17.48
2022-10-24T02:26:06.245Z,13.02
2022-10-24T02:28:40.106Z,13.63
2022-10-24T02:31:16.218Z,13.70
2022-10-24T02:33:46.431Z,15.20
2022-10-24T02:36:19.092Z,13.60
2022-10-24T02:38:50.247Z,14.48
2022-10-24T02:41:23.714Z,15.80
2022-10-24T02:43:53.541Z,13.82
2022-10-24T02:46:24.753Z,13.10
2022-10-24T02:48:58.691Z,18.85
2022-10-24T02:51:30.955Z,15.90
2022-10-24T02:54:01.307Z,13.95
2022-10-24T02:56:30.444Z,16.20
2022-10-24T02:58:58.886Z,16.13
2022-10-24T03:01:29.053Z,17.52
2022-10-24T03:03:57.450Z,14.77
2022-10-24T03:06:25.938Z,19.05
2022-10-24T03:08:54.869Z,14.93
2022-10-24T03:11:23.590Z,17.60
2022-10-24T03:13:52.924Z,17.80
2022-10-24T03:16:21.872Z,14.98
2022-10-24T03:18:51.608Z,14.40
2022-10-24T03:21:20.722Z,12.82
2022-10-24T03:23:49.286Z,14.45
2022-10-24T03:26:18.266Z,15.48
2022-10-24T03:28:46.956Z,14.15
2022-10-24T03:31:15.514Z,14.32
2022-10-24T03:33:44.074Z,13.80
2022-10-24T03:36:13.876Z,15.98
2022-10-24T03:38:43.220Z,14.10
2022-10-24T03:41:11.673Z,15.05
2022-10-24T03:43:40.209Z,12.93
2022-10-24T03:46:08.890Z,13.25
2022-10-24T03:48:37.687Z,13.95
2022-10-24T03:51:06.774Z,14.68
2022-10-24T03:53:36.754Z,13.73
2022-10-24T03:56:05.557Z,13.55
2022-10-24T03:58:34.333Z,14.68
2022-10-24T04:01:04.861Z,16.38
2022-10-24T04:03:34.946Z,16.00
2022-10-24T04:06:05.167Z,13.07
2022-10-24T04:08:33.939Z,16.65
2022-10-24T04:11:04.106Z,16.52
2022-10-24T04:13:34.382Z,14.93
2022-10-24T04:16:02.746Z,16.05
2022-10-24T04:18:31.300Z,16.00
2022-10-24T04:21:00.061Z,16.98
2022-10-24T04:23:28.531Z,14.50
2022-10-24T04:25:57.492Z,16.70
2022-10-24T04:28:30.088Z,15.75
2022-10-24T04:30:58.970Z,15.10
2022-10-24T04:33:28.008Z,17.08
2022-10-24T04:35:56.585Z,16.15
2022-10-24T04:38:25.376Z,18.02
2022-10-24T04:40:55.599Z,15.90
2022-10-24T04:43:24.615Z,14.30
2022-10-24T04:45:54.783Z,15.13
2022-10-24T04:48:23.201Z,15.65
2022-10-24T04:50:51.557Z,17.58
2022-10-24T04:53:20.135Z,15.55
2022-10-24T04:55:48.479Z,16.77
2022-10-24T04:58:17.130Z,14.35
2022-10-24T05:00:48.753Z,16.63
2022-10-24T05:03:18.551Z,15.20
2022-10-24T05:05:47.655Z,16.38
2022-10-24T05:08:16.756Z,21.38
2022-10-24T05:10:45.777Z,15.38
2022-10-24T05:13:14.748Z,14.98
2022-10-24T05:15:43.340Z,16.00
2022-10-24T05:18:11.722Z,15.88
2022-10-24T05:23:10.563Z,14.23
2022-10-24T05:25:39.140Z,19.50
2022-10-24T05:28:09.313Z,15.35
2022-10-24T05:30:37.855Z,16.10
2022-10-24T05:33:06.650Z,17.30
2022-10-24T05:35:35.679Z,18.13
2022-10-24T05:38:08.566Z,15.30
2022-10-24T05:40:37.133Z,14.82
2022-10-24T05:43:05.560Z,19.77
2022-10-24T05:45:35.589Z,16.88
2022-10-24T05:48:07.300Z,16.38
2022-10-24T05:50:36.348Z,18.48
2022-10-24T05:53:06.270Z,16.27
2022-10-24T05:55:35.978Z,19.25
2022-10-24T05:58:04.928Z,22.75
2022-10-24T06:00:34.287Z,20.08
2022-10-24T06:03:03.387Z,25.65
2022-10-24T06:05:36.319Z,19.15
2022-10-24T06:08:06.398Z,16.38
2022-10-24T06:10:35.276Z,17.08
2022-10-24T06:13:03.901Z,22.55
2022-10-24T06:15:32.675Z,22.65
2022-10-24T06:18:01.931Z,20.88
2022-10-24T06:20:30.554Z,20.48
2022-10-24T06:22:59.051Z,19.77
2022-10-24T06:25:29.506Z,20.25
2022-10-24T06:27:58.268Z,26.55
2022-10-24T06:30:27.156Z,29.75
2022-10-24T06:32:55.967Z,25.67
2022-10-24T06:35:24.380Z,22.20
2022-10-24T06:37:53.268Z,15.23
2022-10-24T06:40:22.173Z,15.95
2022-10-24T06:42:57.124Z,17.08
2022-10-24T06:45:29.477Z,18.38
2022-10-24T06:48:01.508Z,15.30
2022-10-24T06:50:31.227Z,16.50
2022-10-24T06:53:00.061Z,12.90
2022-10-24T06:55:28.441Z,17.80
2022-10-24T06:57:58.689Z,15.60
2022-10-24T07:02:58.417Z,14.48
2022-10-24T07:05:27.032Z,16.48
2022-10-24T07:07:57.392Z,13.05
2022-10-24T07:10:26.274Z,13.65
2022-10-24T07:12:58.472Z,13.37
2022-10-24T07:15:27.170Z,14.90
2022-10-24T07:17:55.591Z,13.98
2022-10-24T07:20:26.427Z,12.10
2022-10-24T07:22:55.017Z,13.43
2022-10-24T07:25:24.139Z,14.32
2022-10-24T07:27:55.055Z,14.27
2022-10-24T07:30:28.197Z,14.23
2022-10-24T07:32:57.037Z,14.48
2022-10-24T07:35:25.824Z,12.80
2022-10-24T07:37:54.215Z,17.52
2022-10-24T07:40:23.584Z,14.50
2022-10-24T07:42:52.197Z,13.65
2022-10-24T07:45:25.199Z,14.65
2022-10-24T07:47:54.198Z,16.45
2022-10-24T07:50:23.192Z,16.00
2022-10-24T07:52:52.311Z,13.75
2022-10-24T07:55:23.105Z,13.55
2022-10-24T07:57:55.068Z,18.95
2022-10-24T08:00:26.525Z,15.65
2022-10-24T08:02:55.201Z,16.25
2022-10-24T08:05:26.514Z,17.10
2022-10-24T08:08:06.192Z,15.25
2022-10-24T08:10:44.242Z,15.35
2022-10-24T08:13:13.675Z,15.45
2022-10-24T08:15:43.856Z,16.05
2022-10-24T08:18:12.875Z,15.57
2022-10-24T08:20:41.893Z,14.27
2022-10-24T08:23:10.643Z,17.05
2022-10-24T08:25:42.398Z,15.73
2022-10-24T08:28:11.189Z,13.30
2022-10-24T08:30:40.889Z,13.32
2022-10-24T08:33:18.575Z,13.95
2022-10-24T08:35:50.322Z,13.55
2022-10-24T08:38:19.459Z,12.20
2022-10-24T08:40:50.478Z,13.80
2022-10-24T08:43:23.064Z,11.80
2022-10-24T08:46:00.038Z,13.18
2022-10-24T08:48:33.828Z,13.38
2022-10-24T08:51:12.848Z,16.77
2022-10-24T08:53:42.393Z,13.18
2022-10-24T08:56:13.417Z,10.98
2022-10-24T08:58:46.327Z,11.80
2022-10-24T09:01:23.624Z,14.13
2022-10-24T09:03:56.676Z,10.40
2022-10-24T09:06:32.940Z,11.68
2022-10-24T09:09:05.290Z,10.45
2022-10-24T09:11:43.687Z,11.30
2022-10-24T09:14:16.888Z,10.45
2022-10-24T09:16:56.349Z,14.20
2022-10-24T09:19:31.702Z,10.00
2022-10-24T09:22:02.682Z,9.60
2022-10-24T09:24:38.815Z,10.38
2022-10-24T09:27:19.389Z,9.80
2022-10-24T09:29:48.348Z,10.07
2022-10-24T09:32:20.049Z,7.90
2022-10-24T09:34:51.764Z,9.93
2022-10-24T09:40:22.729Z,9.90
2022-10-24T09:42:55.868Z,8.02
2022-10-24T09:45:38.218Z,9.32
2022-10-24T09:48:19.749Z,7.90
2022-10-24T09:50:52.209Z,10.20
2022-10-24T09:53:27.646Z,7.35
2022-10-24T09:56:01.254Z,9.57
2022-10-24T09:58:33.933Z,9.23
2022-10-24T10:01:08.967Z,6.88
2022-10-24T10:03:41.639Z,9.18
2022-10-24T10:06:22.187Z,9.57
2022-10-24T10:08:52.431Z,7.18
2022-10-24T10:11:31.573Z,11.68
2022-10-24T10:14:07.207Z,8.35
2022-10-24T10:16:40.197Z,7.80
2022-10-24T10:19:17.243Z,9.80
2022-10-24T10:22:04.707Z,8.35
2022-10-24T10:24:41.899Z,7.68
2022-10-24T10:27:27.160Z,8.60
2022-10-24T10:30:20.843Z,7.75
2022-10-24T10:33:01.962Z,6.28
2022-10-24T10:35:42.437Z,6.07
2022-10-24T10:38:26.861Z,6.18
2022-10-24T10:41:03.777Z,9.15
2022-10-24T10:43:40.353Z,6.80
2022-10-24T10:46:19.319Z,6.70
2022-10-24T10:49:01.084Z,7.18
2022-10-24T10:51:40.520Z,6.40
2022-10-24T10:54:21.136Z,6.18
2022-10-24T10:56:53.828Z,8.48
2022-10-24T10:59:38.874Z,7.07
2022-10-24T11:02:27.960Z,5.28
2022-10-24T11:05:08.884Z,11.52
2022-10-24T11:07:49.977Z,6.18
2022-10-24T11:10:23.764Z,8.73
2022-10-24T11:12:57.623Z,6.80
2022-10-24T11:15:31.265Z,7.45
2022-10-24T11:18:10.977Z,5.57
2022-10-24T11:20:46.121Z,7.65
2022-10-24T11:23:21.189Z,4.68
2022-10-24T11:25:56.230Z,8.63
2022-10-24T11:28:32.688Z,7.35
2022-10-24T11:31:06.758Z,5.50
2022-10-24T11:33:44.587Z,6.75
2022-10-24T11:36:20.876Z,5.22
2022-10-24T11:38:57.833Z,8.73
2022-10-24T11:41:36.906Z,7.35
2022-10-24T11:44:19.354Z,7.07
2022-10-24T11:46:54.734Z,7.72
2022-10-24T11:49:33.246Z,8.40
2022-10-24T11:52:08.061Z,5.50
2022-10-24T11:54:51.167Z,6.15
2022-10-24T11:57:25.819Z,5.57
2022-10-24T11:59:56.676Z,6.57
2022-10-24T12:02:58.937Z,8.00
2022-10-24T12:05:42.331Z,5.53
2022-10-24T12:08:41.950Z,9.10
2022-10-24T12:11:36.904Z,9.57
2022-10-24T12:14:37.963Z,6.88
2022-10-24T12:17:22.371Z,8.05
2022-10-24T12:19:52.615Z,9.00
2022-10-24T12:22:27.775Z,4.75
2022-10-24T12:25:05.796Z,6.78
2022-10-24T12:27:42.881Z,6.57
2022-10-24T12:30:24.522Z,7.97
2022-10-24T12:32:57.349Z,9.85
2022-10-24T12:35:59.992Z,5.68
2022-10-24T12:39:08.198Z,6.82
2022-10-24T12:41:44.814Z,6.05
2022-10-24T12:44:41.488Z,5.53
2022-10-24T12:47:36.660Z,7.93
2022-10-24T12:50:53.447Z,5.70
2022-10-24T12:53:38.934Z,5.07
2022-10-24T12:56:21.924Z,7.53
2022-10-24T12:59:20.418Z,5.18
2022-10-24T13:02:09.207Z,5.20
2022-10-24T13:05:04.700Z,5.07
2022-10-24T13:08:01.764Z,6.40
2022-10-24T13:10:46.320Z,5.70
2022-10-24T13:13:41.049Z,5.03
2022-10-24T13:16:30.788Z,5.40
2022-10-24T13:19:10.728Z,4.57
2022-10-24T13:21:50.982Z,7.22
2022-10-24T13:24:26.709Z,12.37
2022-10-24T13:27:30.998Z,6.72
2022-10-24T13:30:21.740Z,3.67
2022-10-24T13:32:50.653Z,8.02
2022-10-24T13:35:26.509Z,6.45
2022-10-24T13:38:04.753Z,5.93
2022-10-24T13:40:40.341Z,5.45
2022-10-24T13:43:19.687Z,7.15
2022-10-24T13:45:58.974Z,6.88
2022-10-24T13:48:32.600Z,6.22
2022-10-24T13:51:07.987Z,6.30
2022-10-24T13:53:50.567Z,4.05
2022-10-24T13:56:20.679Z,5.57
2022-10-24T13:58:49.502Z,5.13
2022-10-24T14:01:22.234Z,6.93
2022-10-24T14:03:52.287Z,6.53
2022-10-24T14:06:25.899Z,8.00
2022-10-24T14:09:06.411Z,6.80
2022-10-24T14:11:40.903Z,6.55
2022-10-24T14:14:25.872Z,7.55
2022-10-24T14:17:07.902Z,7.50
2022-10-24T14:19:44.357Z,5.95
2022-10-24T14:22:21.457Z,8.38
2022-10-24T14:24:53.566Z,7.85
2022-10-24T14:27:22.790Z,5.30
2022-10-24T14:30:07.180Z,7.20
2022-10-24T14:32:36.820Z,7.15
2022-10-24T14:35:06.609Z,7.53
2022-10-24T14:37:41.069Z,8.40
2022-10-24T14:40:20.199Z,8.93
2022-10-24T14:42:49.553Z,9.07
2022-10-24T14:45:28.238Z,7.47
2022-10-24T14:48:00.696Z,9.82
2022-10-24T14:50:45.000Z,7.88
2022-10-24T14:53:25.575Z,8.57
2022-10-24T14:55:58.944Z,8.90
2022-10-24T14:58:29.936Z,9.02
2022-10-24T15:01:00.102Z,8.00
2022-10-24T15:03:30.083Z,10.00
2022-10-24T15:06:13.799Z,11.68
2022-10-24T15:08:51.420Z,11.43
2022-10-24T15:11:27.783Z,14.90
2022-10-24T15:14:06.796Z,15.88
2022-10-24T15:16:39.590Z,14.93
2022-10-24T15:19:18.065Z,15.88
2022-10-24T15:21:48.573Z,14.65
2022-10-24T15:24:23.783Z,16.17
2022-10-24T15:27:09.799Z,13.40
2022-10-24T15:29:41.843Z,13.20
2022-10-24T15:32:12.974Z,13.95
2022-10-24T15:34:42.870Z,14.75
2022-10-24T15:37:19.681Z,12.48
2022-10-24T15:39:49.112Z,15.15
2022-10-24T15:42:22.338Z,12.77
2022-10-24T15:44:51.492Z,14.63
2022-10-24T15:47:24.073Z,14.27
2022-10-24T15:49:52.930Z,14.48
2022-10-24T15:52:21.714Z,17.50
2022-10-24T15:54:50.835Z,16.38
2022-10-24T15:59:52.868Z,11.43
2022-10-24T16:02:26.150Z,13.02
2022-10-24T16:04:54.805Z,13.32
2022-10-24T16:07:23.505Z,18.55
2022-10-24T16:09:52.475Z,17.10
2022-10-24T16:12:24.377Z,18.95
2022-10-24T16:17:24.585Z,20.15
2022-10-24T16:19:55.560Z,23.58
2022-10-24T16:22:27.214Z,27.13
2022-10-24T16:24:56.184Z,25.25
2022-10-24T16:27:26.321Z,29.23
2022-10-24T16:29:55.463Z,24.85
2022-10-24T16:32:24.430Z,19.10
2022-10-24T16:34:57.154Z,18.52
2022-10-24T16:37:25.844Z,18.05
2022-10-24T16:39:54.673Z,14.73
2022-10-24T16:42:26.552Z,14.40
2022-10-24T16:44:57.234Z,14.10
2022-10-24T16:47:29.593Z,17.90
2022-10-24T16:49:59.545Z,14.55
2022-10-24T16:52:29.869Z,13.50
2022-10-24T16:54:59.450Z,17.42
2022-10-24T16:57:29.693Z,13.93
2022-10-24T16:59:59.974Z,14.38
2022-10-24T17:02:29.448Z,14.18
2022-10-24T17:04:58.380Z,17.25
2022-10-24T17:07:28.718Z,16.17
2022-10-24T17:09:57.834Z,14.43
2022-10-24T17:12:27.680Z,15.63
2022-10-24T17:15:02.680Z,16.85
2022-10-24T17:17:33.438Z,17.83
2022-10-24T17:20:01.803Z,16.17
2022-10-24T17:25:02.384Z,18.98
2022-10-24T17:27:31.502Z,15.50
2022-10-24T17:30:01.945Z,16.33
2022-10-24T17:32:33.208Z,17.13
2022-10-24T17:35:03.058Z,16.00
2022-10-24T17:37:44.578Z,18.23
2022-10-24T17:40:16.396Z,18.37
2022-10-24T17:42:48.044Z,17.50
2022-10-24T17:47:51.548Z,19.95
2022-10-24T17:50:24.791Z,20.65
2022-10-24T17:52:54.365Z,19.02
2022-10-24T17:55:45.267Z,21.65
2022-10-24T17:58:14.424Z,20.30
2022-10-24T18:00:45.516Z,20.67
2022-10-24T18:03:14.629Z,17.67
2022-10-24T18:05:48.538Z,22.52
2022-10-24T18:08:17.661Z,22.40
2022-10-24T18:10:46.246Z,23.25
2022-10-24T18:13:18.005Z,30.80
2022-10-24T18:15:47.904Z,22.63
2022-10-24T18:18:16.588Z,22.40
2022-10-24T18:20:45.609Z,23.27
2022-10-24T18:23:15.171Z,17.02
2022-10-24T18:25:44.599Z,21.60
2022-10-24T18:28:13.565Z,23.42
2022-10-24T18:30:42.461Z,20.33
2022-10-24T18:33:12.495Z,18.38
2022-10-24T18:35:41.008Z,18.90
2022-10-24T18:38:09.651Z,21.25
2022-10-24T18:40:39.349Z,23.38
2022-10-24T18:43:08.656Z,19.35
2022-10-24T18:45:39.264Z,21.48
2022-10-24T18:48:09.315Z,24.73
2022-10-24T18:50:39.377Z,23.33
2022-10-24T18:53:10.710Z,21.15
2022-10-24T18:55:40.534Z,23.23
2022-10-24T18:58:14.123Z,23.33
2022-10-24T19:00:44.345Z,22.55
2022-10-24T19:03:21.857Z,24.25
2022-10-24T19:05:59.196Z,20.25
2022-10-24T19:08:28.706Z,24.60
2022-10-24T19:10:58.372Z,23.77
2022-10-24T19:13:28.326Z,22.13
2022-10-24T19:16:00.339Z,25.77
2022-10-24T19:18:31.548Z,23.20
2022-10-24T19:21:02.274Z,22.90
2022-10-24T19:23:30.742Z,23.10
2022-10-24T19:26:00.057Z,24.55
2022-10-24T19:28:28.931Z,24.70
2022-10-24T19:30:59.628Z,27.65
2022-10-24T19:33:29.636Z,24.95
2022-10-24T19:35:58.564Z,22.88
2022-10-24T19:38:29.014Z,32.78
2022-10-24T19:40:58.647Z,23.83
2022-10-24T19:43:30.978Z,27.42
2022-10-24T19:46:19.421Z,24.27
2022-10-24T19:48:49.744Z,25.20
2022-10-24T19:51:19.890Z,22.80
2022-10-24T19:53:50.859Z,23.42
2022-10-24T19:56:25.035Z,25.13
2022-10-24T19:58:55.551Z,29.67
2022-10-24T20:01:26.678Z,24.45
2022-10-24T20:03:56.348Z,21.98
2022-10-24T20:06:27.052Z,25.48
2022-10-24T20:08:57.892Z,25.67
2022-10-24T20:11:26.658Z,25.77
2022-10-24T20:13:55.516Z,27.85
2022-10-24T20:16:24.287Z,31.17
2022-10-24T20:18:56.059Z,24.60
2022-10-24T20:23:53.792Z,26.45
2022-10-24T20:26:26.498Z,25.40
2022-10-24T20:28:56.915Z,27.27
2022-10-24T20:31:28.139Z,27.65
2022-10-24T20:34:05.140Z,26.50
2022-10-24T20:36:37.921Z,25.88
2022-10-24T20:39:08.921Z,29.45
2022-10-24T20:41:39.846Z,27.52
2022-10-24T20:44:11.224Z,28.98
2022-10-24T20:46:42.845Z,33.05
2022-10-24T20:49:11.541Z,25.20
2022-10-24T20:51:43.293Z,26.25
2022-10-24T20:54:12.314Z,25.80
2022-10-24T20:56:42.933Z,25.98
2022-10-24T20:59:14.252Z,25.17
2022-10-24T21:01:43.050Z,26.20
2022-10-24T21:04:12.863Z,28.92
2022-10-24T21:06:43.209Z,27.17
2022-10-24T21:09:11.567Z,30.98
2022-10-24T21:11:42.371Z,26.23
2022-10-24T21:14:13.402Z,26.50
2022-10-24T21:16:42.024Z,27.23
2022-10-24T21:19:10.843Z,24.15
2022-10-24T21:21:40.057Z,26.83
2022-10-24T21:24:09.264Z,27.75
2022-10-24T21:26:39.013Z,26.35
2022-10-24T21:29:31.698Z,25.80
2022-10-24T21:31:58.302Z,22.75
2022-10-24T21:34:28.827Z,24.58
2022-10-24T21:37:00.643Z,20.40
2022-10-24T21:39:29.288Z,26.15
2022-10-24T21:41:57.806Z,21.92
2022-10-24T21:44:30.256Z,23.77
2022-10-24T21:46:58.764Z,27.30
2022-10-24T21:49:28.185Z,21.70
2022-10-24T21:51:57.190Z,25.52
2022-10-24T21:54:26.520Z,21.95
2022-10-24T21:56:58.076Z,27.50
2022-10-24T21:59:28.821Z,24.10
2022-10-24T22:01:58.045Z,23.58
2022-10-24T22:04:30.309Z,24.80
2022-10-24T22:06:58.756Z,20.73
2022-10-24T22:09:27.537Z,21.83
2022-10-24T22:11:58.244Z,24.05
2022-10-24T22:14:28.104Z,22.90
2022-10-24T22:16:56.886Z,22.67
2022-10-24T22:19:27.384Z,24.05
2022-10-24T22:21:56.106Z,20.13
2022-10-24T22:24:25.445Z,19.55
2022-10-24T22:26:54.266Z,24.70
2022-10-24T22:29:26.822Z,25.50
2022-10-24T22:31:57.714Z,19.77
2022-10-24T22:34:28.610Z,22.67
2022-10-24T22:37:13.046Z,17.48
2022-10-24T22:39:43.562Z,20.50
2022-10-24T22:42:16.043Z,20.92
2022-10-24T22:44:48.506Z,18.55
2022-10-24T22:47:43.526Z,20.05
2022-10-24T22:50:25.506Z,18.33
2022-10-24T22:55:32.682Z,16.13
2022-10-24T22:58:03.500Z,18.98
2022-10-24T23:00:32.628Z,15.23
2022-10-24T23:03:12.779Z,20.15
2022-10-24T23:05:48.993Z,19.48
2022-10-24T23:08:30.859Z,15.52
2022-10-24T23:10:59.865Z,15.48
2022-10-24T23:13:29.030Z,19.15
2022-10-24T23:16:06.534Z,14.48
2022-10-24T23:18:37.100Z,18.10
2022-10-24T23:21:13.892Z,17.08
2022-10-24T23:23:42.811Z,18.23
2022-10-24T23:26:25.043Z,16.20
2022-10-24T23:29:02.757Z,16.48
2022-10-24T23:31:31.687Z,16.95
2022-10-24T23:34:03.068Z,18.60
2022-10-24T23:36:32.292Z,15.85
2022-10-24T23:39:01.594Z,13.52
2022-10-24T23:41:30.864Z,16.13
2022-10-24T23:44:00.101Z,13.43
2022-10-24T23:46:35.974Z,16.00
2022-10-24T23:49:18.926Z,14.88
2022-10-24T23:51:54.922Z,18.45
2022-10-24T23:54:27.218Z,16.23
2022-10-24T23:56:56.302Z,15.55
2022-10-24T23:59:25.046Z,19.17
